createdAt,value
2022-11-13T00:02:19.321Z,86.82
2022-11-13T00:04:45.958Z,86.85
2022-11-13T00:07:12.660Z,87.58
2022-11-13T00:09:39.312Z,86.40
2022-11-13T00:12:05.935Z,86.87
2022-11-13T00:14:32.564Z,87.58
2022-11-13T00:16:59.198Z,87.09
2022-11-13T00:19:25.814Z,86.68
2022-11-13T00:21:52.440Z,87.39
2022-11-13T00:24:19.078Z,87.58
2022-11-13T00:26:45.721Z,87.49
2022-11-13T00:29:12.348Z,87.40
2022-11-13T00:31:38.980Z,87.33
2022-11-13T00:34:26.031Z,86.72
2022-11-13T00:36:52.205Z,86.20
2022-11-13T00:39:18.825Z,85.61
2022-11-13T00:41:45.459Z,86.13
2022-11-13T00:44:12.099Z,86.64
2022-11-13T00:46:38.735Z,87.19
2022-11-13T00:49:05.374Z,86.43
2022-11-13T00:51:32.074Z,86.70
2022-11-13T00:53:58.701Z,86.80
2022-11-13T00:56:25.359Z,86.72
2022-11-13T00:58:51.984Z,86.37
2022-11-13T01:01:19.119Z,85.34
2022-11-13T01:03:45.848Z,85.70
2022-11-13T01:06:22.704Z,85.44
2022-11-13T01:08:49.395Z,86.11
2022-11-13T01:11:17.819Z,86.54
2022-11-13T01:13:45.478Z,86.61
2022-11-13T01:16:12.715Z,85.91
2022-11-13T01:18:39.408Z,86.40
2022-11-13T01:21:10.231Z,85.51
2022-11-13T01:23:36.919Z,86.32
2022-11-13T01:26:10.842Z,85.72
2022-11-13T01:28:37.514Z,86.10
2022-11-13T01:31:07.865Z,85.54
2022-11-13T01:33:34.550Z,85.43
2022-11-13T01:36:08.517Z,86.02
2022-11-13T01:38:37.019Z,86.24
2022-11-13T01:41:04.765Z,86.51
2022-11-13T01:43:36.422Z,85.88
2022-11-13T01:46:32.232Z,85.20
2022-11-13T01:49:10.226Z,86.01
2022-11-13T01:51:42.314Z,85.81
2022-11-13T01:54:11.421Z,85.72
2022-11-13T01:56:38.049Z,85.80
2022-11-13T01:59:10.615Z,86.25
2022-11-13T02:01:37.309Z,86.79
2022-11-13T02:04:04.081Z,86.58
2022-11-13T02:06:33.638Z,86.61
2022-11-13T02:09:00.267Z,86.43
2022-11-13T02:11:26.890Z,86.41
2022-11-13T02:13:53.499Z,87.40
2022-11-13T02:16:20.125Z,87.44
2022-11-13T02:18:46.740Z,87.10
2022-11-13T02:21:35.049Z,86.24
2022-11-13T02:24:16.815Z,86.61
2022-11-13T02:26:43.443Z,86.52
2022-11-13T02:29:10.070Z,87.15
2022-11-13T02:31:36.683Z,86.73
2022-11-13T02:34:03.313Z,86.58
2022-11-13T02:36:30.056Z,87.50
2022-11-13T02:38:57.320Z,87.86
2022-11-13T02:41:23.937Z,87.21
2022-11-13T02:43:50.592Z,87.74
2022-11-13T02:46:17.213Z,86.94
2022-11-13T02:48:43.844Z,86.45
2022-11-13T02:51:10.472Z,86.08
2022-11-13T02:53:37.087Z,86.04
2022-11-13T02:56:03.776Z,87.29
2022-11-13T02:58:30.932Z,86.84
2022-11-13T03:00:57.798Z,85.59
2022-11-13T03:03:48.112Z,85.67
2022-11-13T03:06:11.017Z,86.24
2022-11-13T03:08:38.064Z,87.15
2022-11-13T03:11:09.388Z,87.21
2022-11-13T03:13:36.535Z,86.96
2022-11-13T03:16:10.737Z,87.31
2022-11-13T03:18:37.415Z,86.21
2022-11-13T03:21:11.034Z,85.90
2022-11-13T03:23:37.745Z,86.22
2022-11-13T03:26:08.540Z,86.57
2022-11-13T03:28:35.277Z,86.27
2022-11-13T03:31:01.893Z,85.89
2022-11-13T03:33:28.526Z,86.53
2022-11-13T03:35:55.197Z,86.60
2022-11-13T03:38:21.831Z,86.72
2022-11-13T03:40:48.528Z,85.82
2022-11-13T03:43:15.207Z,86.89
2022-11-13T03:45:41.859Z,86.30
2022-11-13T03:48:08.650Z,88.04
2022-11-13T03:50:35.292Z,87.07
2022-11-13T03:53:01.935Z,87.14
2022-11-13T03:55:28.766Z,87.19
2022-11-13T03:57:55.402Z,87.04
2022-11-13T04:00:22.042Z,86.76
2022-11-13T04:02:48.685Z,87.43
2022-11-13T04:05:18.702Z,87.28
2022-11-13T04:07:49.146Z,87.45
2022-11-13T04:10:15.793Z,87.21
2022-11-13T04:12:42.418Z,88.52
2022-11-13T04:15:09.361Z,87.35
2022-11-13T04:17:36.840Z,87.39
2022-11-13T04:20:03.602Z,88.24
2022-11-13T04:22:30.234Z,86.96
2022-11-13T04:24:56.860Z,87.50
2022-11-13T04:27:23.498Z,87.97
2022-11-13T04:29:50.122Z,87.62
2022-11-13T04:32:16.733Z,87.84
2022-11-13T04:34:43.369Z,87.61
2022-11-13T04:37:09.990Z,88.41
2022-11-13T04:39:36.642Z,86.93
2022-11-13T04:42:03.315Z,86.81
2022-11-13T04:44:29.934Z,87.59
2022-11-13T04:46:56.562Z,86.21
2022-11-13T04:49:23.185Z,86.68
2022-11-13T04:51:49.804Z,87.13
2022-11-13T04:54:16.423Z,87.75
2022-11-13T04:56:43.046Z,86.93
2022-11-13T04:59:09.667Z,86.84
2022-11-13T05:01:39.225Z,87.40
2022-11-13T05:04:05.883Z,86.80
2022-11-13T05:06:32.511Z,86.92
2022-11-13T05:08:59.136Z,87.15
2022-11-13T05:11:25.757Z,86.52
2022-11-13T05:13:52.377Z,86.29
2022-11-13T05:16:19.010Z,86.72
2022-11-13T05:18:45.642Z,86.66
2022-11-13T05:21:12.268Z,86.40
2022-11-13T05:23:38.898Z,86.72
2022-11-13T05:26:07.978Z,85.39
2022-11-13T05:28:34.606Z,85.90
2022-11-13T05:31:04.047Z,86.54
2022-11-13T05:33:30.675Z,87.04
2022-11-13T05:36:04.293Z,86.34
2022-11-13T05:38:31.231Z,87.24
2022-11-13T05:41:08.461Z,87.10
2022-11-13T05:43:35.401Z,86.67
2022-11-13T05:46:05.727Z,86.56
2022-11-13T05:48:32.813Z,86.75
2022-11-13T05:51:07.147Z,86.41
2022-11-13T05:53:33.896Z,86.15
2022-11-13T05:56:07.741Z,86.90
2022-11-13T05:58:34.638Z,87.20
2022-11-13T06:01:08.909Z,86.68
2022-11-13T06:03:35.552Z,86.88
2022-11-13T06:06:02.158Z,85.99
2022-11-13T06:08:29.115Z,86.29
2022-11-13T06:11:03.290Z,86.01
2022-11-13T06:13:29.924Z,85.59
2022-11-13T06:16:13.609Z,86.36
2022-11-13T06:18:40.515Z,86.48
2022-11-13T06:21:09.274Z,86.28
2022-11-13T06:23:36.733Z,86.77
2022-11-13T06:26:11.222Z,88.26
2022-11-13T06:28:37.860Z,86.74
2022-11-13T06:31:12.162Z,87.52
2022-11-13T06:33:39.064Z,86.05
2022-11-13T06:36:06.941Z,86.47
2022-11-13T06:38:34.952Z,86.70
2022-11-13T06:41:01.783Z,85.66
2022-11-13T06:43:28.418Z,85.38
2022-11-13T06:45:55.327Z,85.62
2022-11-13T06:48:22.154Z,85.24
2022-11-13T06:50:48.925Z,85.27
2022-11-13T06:53:15.702Z,85.33
2022-11-13T06:55:46.441Z,85.55
2022-11-13T06:58:13.379Z,85.59
2022-11-13T07:00:40.835Z,85.18
2022-11-13T07:03:15.123Z,84.72
2022-11-13T07:05:41.763Z,84.46
2022-11-13T07:08:08.374Z,85.40
2022-11-13T07:10:35.010Z,85.38
2022-11-13T07:13:01.620Z,85.71
2022-11-13T07:15:28.261Z,86.17
2022-11-13T07:17:54.878Z,86.54
2022-11-13T07:20:21.505Z,85.50
2022-11-13T07:22:48.122Z,86.27
2022-11-13T07:25:14.761Z,86.55
2022-11-13T07:27:45.153Z,86.20
2022-11-13T07:30:12.415Z,84.99
2022-11-13T07:32:39.034Z,86.04
2022-11-13T07:35:06.001Z,84.58
2022-11-13T07:37:32.623Z,85.89
2022-11-13T07:39:59.247Z,86.25
2022-11-13T07:42:25.875Z,86.64
2022-11-13T07:44:54.850Z,85.29
2022-11-13T07:47:22.353Z,85.95
2022-11-13T07:49:48.981Z,86.11
2022-11-13T07:52:15.607Z,85.14
2022-11-13T07:54:42.236Z,85.02
2022-11-13T07:57:08.851Z,84.02
2022-11-13T07:59:35.490Z,84.17
2022-11-13T08:02:02.109Z,84.56
2022-11-13T08:04:29.720Z,84.65
2022-11-13T08:06:56.357Z,85.68
2022-11-13T08:09:23.017Z,83.90
2022-11-13T08:11:49.649Z,82.93
2022-11-13T08:14:16.280Z,83.01
2022-11-13T08:16:42.910Z,83.49
2022-11-13T08:19:09.672Z,82.22
2022-11-13T08:21:36.319Z,82.54
2022-11-13T08:24:02.969Z,81.83
2022-11-13T08:26:29.604Z,81.18
2022-11-13T08:28:56.270Z,82.21
2022-11-13T08:31:22.895Z,81.95
2022-11-13T08:33:49.526Z,82.28
2022-11-13T08:36:16.151Z,82.61
2022-11-13T08:38:43.899Z,83.35
2022-11-13T08:41:10.528Z,82.50
2022-11-13T08:43:37.580Z,82.46
2022-11-13T08:46:04.228Z,82.68
2022-11-13T08:48:31.246Z,83.69
2022-11-13T08:50:58.101Z,83.05
2022-11-13T08:53:24.815Z,82.73
2022-11-13T08:55:51.457Z,82.88
2022-11-13T08:58:18.083Z,82.93
2022-11-13T09:00:44.703Z,83.21
2022-11-13T09:03:11.522Z,82.35
2022-11-13T09:05:38.150Z,83.27
2022-11-13T09:08:04.976Z,82.38
2022-11-13T09:10:31.595Z,82.87
2022-11-13T09:12:59.109Z,81.96
2022-11-13T09:15:25.801Z,81.61
2022-11-13T09:17:55.505Z,82.24
2022-11-13T09:20:23.167Z,82.73
2022-11-13T09:22:55.678Z,82.96
2022-11-13T09:25:22.311Z,82.04
2022-11-13T09:27:55.602Z,81.66
2022-11-13T09:30:22.234Z,81.09
2022-11-13T09:32:48.857Z,81.03
2022-11-13T09:35:15.490Z,81.38
2022-11-13T09:37:42.107Z,82.54
2022-11-13T09:40:11.562Z,82.04
2022-11-13T09:42:38.187Z,83.66
2022-11-13T09:45:11.270Z,83.04
2022-11-13T09:47:41.240Z,84.83
2022-11-13T09:50:25.055Z,81.86
2022-11-13T09:52:51.684Z,81.72
2022-11-13T09:55:20.021Z,81.48
2022-11-13T09:58:07.535Z,82.28
2022-11-13T10:00:34.191Z,82.48
2022-11-13T10:03:54.156Z,80.77
2022-11-13T10:06:40.726Z,81.90
2022-11-13T10:09:22.103Z,81.45
2022-11-13T10:11:53.847Z,80.02
2022-11-13T10:14:31.637Z,80.10
2022-11-13T10:17:21.980Z,80.28
2022-11-13T10:19:59.395Z,78.44
2022-11-13T10:22:44.572Z,79.26
2022-11-13T10:25:15.695Z,80.02
2022-11-13T10:27:42.847Z,79.94
2022-11-13T10:30:16.565Z,81.74
2022-11-13T10:32:43.398Z,80.95
2022-11-13T10:35:26.577Z,80.76
2022-11-13T10:38:16.136Z,81.00
2022-11-13T10:40:42.775Z,82.33
2022-11-13T10:43:17.390Z,80.18
2022-11-13T10:46:03.058Z,79.52
2022-11-13T10:48:31.872Z,79.66
2022-11-13T10:51:26.432Z,79.97
2022-11-13T10:53:53.138Z,79.95
2022-11-13T10:56:32.749Z,79.04
2022-11-13T10:59:16.457Z,79.04
2022-11-13T11:01:43.971Z,79.01
2022-11-13T11:04:21.014Z,78.58
2022-11-13T11:09:36.674Z,79.28
2022-11-13T11:12:15.065Z,78.05
2022-11-13T11:14:56.811Z,76.59
2022-11-13T11:17:36.812Z,76.91
2022-11-13T11:20:17.109Z,75.50
2022-11-13T11:22:43.854Z,77.08
2022-11-13T11:25:14.067Z,76.17
2022-11-13T11:27:46.887Z,76.37
2022-11-13T11:30:26.342Z,76.09
2022-11-13T11:33:29.430Z,77.16
2022-11-13T11:36:46.193Z,77.64
2022-11-13T11:39:27.740Z,76.69
2022-11-13T11:42:18.615Z,77.94
2022-11-13T11:45:03.628Z,77.82
2022-11-13T11:47:30.251Z,78.10
2022-11-13T11:49:56.887Z,75.38
2022-11-13T11:52:27.353Z,75.09
2022-11-13T11:55:40.006Z,75.60
2022-11-13T11:58:16.407Z,75.86
2022-11-13T12:00:54.747Z,75.36
2022-11-13T12:03:38.901Z,74.62
2022-11-13T12:06:39.669Z,75.25
2022-11-13T12:09:29.410Z,76.10
2022-11-13T12:12:14.419Z,75.39
2022-11-13T12:14:56.063Z,75.57
2022-11-13T12:17:37.641Z,76.98
2022-11-13T12:20:43.967Z,72.88
2022-11-13T12:23:48.079Z,72.68
2022-11-13T12:26:41.836Z,74.05
2022-11-13T12:29:14.340Z,74.30
2022-11-13T12:31:46.503Z,75.75
2022-11-13T12:34:27.819Z,72.50
2022-11-13T12:36:54.502Z,72.98
2022-11-13T12:39:39.331Z,72.77
2022-11-13T12:42:11.572Z,72.72
2022-11-13T12:44:56.446Z,73.49
2022-11-13T12:47:23.062Z,75.59
2022-11-13T12:49:59.224Z,73.98
2022-11-13T12:52:25.855Z,74.23
2022-11-13T12:55:03.507Z,74.21
2022-11-13T12:57:31.439Z,73.79
2022-11-13T12:59:58.631Z,73.01
2022-11-13T13:02:54.710Z,71.44
2022-11-13T13:05:37.503Z,70.60
2022-11-13T13:08:22.244Z,70.81
2022-11-13T13:11:11.778Z,70.97
2022-11-13T13:13:58.118Z,70.39
2022-11-13T13:16:26.095Z,70.10
2022-11-13T13:18:52.749Z,70.78
2022-11-13T13:21:20.123Z,70.71
2022-11-13T13:23:48.587Z,69.43
2022-11-13T13:26:16.443Z,70.58
2022-11-13T13:28:46.512Z,71.26
2022-11-13T13:31:12.986Z,72.25
2022-11-13T13:33:39.479Z,69.68
2022-11-13T13:36:39.439Z,71.38
2022-11-13T13:39:25.926Z,70.05
2022-11-13T13:42:10.584Z,69.69
2022-11-13T13:44:50.682Z,70.10
2022-11-13T13:47:37.237Z,68.60
2022-11-13T13:50:05.862Z,69.63
2022-11-13T13:52:33.339Z,69.10
2022-11-13T13:55:01.541Z,68.46
2022-11-13T13:57:28.168Z,67.34
2022-11-13T13:59:54.797Z,59.77
2022-11-13T14:02:22.419Z,61.50
2022-11-13T14:04:53.298Z,56.06
2022-11-13T14:07:22.799Z,51.00
2022-11-13T14:09:49.444Z,44.95
2022-11-13T14:12:20.904Z,40.40
2022-11-13T14:14:47.849Z,39.47
2022-11-13T14:17:22.223Z,45.10
2022-11-13T14:19:52.639Z,49.71
2022-11-13T14:22:19.263Z,49.20
2022-11-13T14:24:51.356Z,54.46
2022-11-13T14:27:20.480Z,57.59
2022-11-13T14:29:48.622Z,55.30
2022-11-13T14:32:20.219Z,55.54
2022-11-13T14:34:46.851Z,58.07
2022-11-13T14:37:16.322Z,60.16
2022-11-13T14:39:45.054Z,63.48
2022-11-13T14:42:34.513Z,64.05
2022-11-13T14:45:23.154Z,64.27
2022-11-13T14:48:22.569Z,65.07
2022-11-13T14:51:05.550Z,64.11
2022-11-13T14:53:37.502Z,65.95
2022-11-13T14:56:08.856Z,68.04
2022-11-13T14:58:37.293Z,66.25
2022-11-13T15:01:18.475Z,66.41
2022-11-13T15:03:45.583Z,67.60
2022-11-13T15:06:17.303Z,67.76
2022-11-13T15:08:44.778Z,68.35
2022-11-13T15:11:18.432Z,69.56
2022-11-13T15:13:45.158Z,69.77
2022-11-13T15:16:22.831Z,69.96
2022-11-13T15:19:11.157Z,70.23
2022-11-13T15:21:37.837Z,70.43
2022-11-13T15:24:04.734Z,72.21
2022-11-13T15:26:31.358Z,71.56
2022-11-13T15:28:57.978Z,71.30
2022-11-13T15:31:29.806Z,71.49
2022-11-13T15:33:56.443Z,72.96
2022-11-13T15:36:23.085Z,71.60
2022-11-13T15:38:49.710Z,71.84
2022-11-13T15:41:18.670Z,74.40
2022-11-13T15:43:46.650Z,72.72
2022-11-13T15:46:13.819Z,75.95
2022-11-13T15:48:40.442Z,77.70
2022-11-13T15:51:28.145Z,73.79
2022-11-13T15:53:57.070Z,74.31
2022-11-13T15:56:24.162Z,73.91
2022-11-13T15:58:50.912Z,73.19
2022-11-13T16:01:17.578Z,74.18
2022-11-13T16:03:44.222Z,75.01
2022-11-13T16:06:15.823Z,76.60
2022-11-13T16:08:42.567Z,75.60
2022-11-13T16:11:15.798Z,75.20
2022-11-13T16:13:42.695Z,76.33
2022-11-13T16:16:17.808Z,75.29
2022-11-13T16:18:44.432Z,77.02
2022-11-13T16:21:12.240Z,77.62
2022-11-13T16:23:38.877Z,76.84
2022-11-13T16:26:06.164Z,76.57
2022-11-13T16:28:42.020Z,77.15
2022-11-13T16:31:20.343Z,77.05
2022-11-13T16:33:47.207Z,76.74
2022-11-13T16:36:14.668Z,76.72
2022-11-13T16:38:41.599Z,77.38
2022-11-13T16:41:10.258Z,77.33
2022-11-13T16:43:37.373Z,78.65
2022-11-13T16:46:19.575Z,78.44
2022-11-13T16:48:47.199Z,80.79
2022-11-13T16:51:13.815Z,81.46
2022-11-13T16:53:40.456Z,78.65
2022-11-13T16:56:14.758Z,78.99
2022-11-13T16:58:41.381Z,79.72
2022-11-13T17:01:18.323Z,80.83
2022-11-13T17:03:45.418Z,80.26
2022-11-13T17:06:33.214Z,79.32
2022-11-13T17:09:00.445Z,78.68
2022-11-13T17:11:28.667Z,79.10
2022-11-13T17:13:56.471Z,79.94
2022-11-13T17:16:23.603Z,79.20
2022-11-13T17:18:50.313Z,79.27
2022-11-13T17:21:16.940Z,78.61
2022-11-13T17:23:43.650Z,79.07
2022-11-13T17:26:10.296Z,78.66
2022-11-13T17:28:36.925Z,79.24
2022-11-13T17:31:07.572Z,78.61
2022-11-13T17:33:34.194Z,78.08
2022-11-13T17:36:00.820Z,79.18
2022-11-13T17:38:27.716Z,79.38
2022-11-13T17:40:54.411Z,79.70
2022-11-13T17:43:21.617Z,78.14
2022-11-13T17:45:51.552Z,78.81
2022-11-13T17:48:18.609Z,77.59
2022-11-13T17:50:45.231Z,77.63
2022-11-13T17:53:11.907Z,76.74
2022-11-13T17:55:38.542Z,78.31
2022-11-13T17:58:05.173Z,78.27
2022-11-13T18:00:31.800Z,80.06
2022-11-13T18:02:58.427Z,80.36
2022-11-13T18:05:25.059Z,79.49
2022-11-13T18:07:51.665Z,78.33
2022-11-13T18:10:18.399Z,78.51
2022-11-13T18:12:45.059Z,79.03
2022-11-13T18:15:11.685Z,79.88
2022-11-13T18:17:38.313Z,77.82
2022-11-13T18:20:05.250Z,79.57
2022-11-13T18:22:31.876Z,79.45
2022-11-13T18:24:58.508Z,76.80
2022-11-13T18:27:25.134Z,76.82
2022-11-13T18:29:51.854Z,77.31
2022-11-13T18:32:18.571Z,77.74
2022-11-13T18:34:45.192Z,77.07
2022-11-13T18:37:11.801Z,77.02
2022-11-13T18:39:38.438Z,77.30
2022-11-13T18:42:05.072Z,76.84
2022-11-13T18:44:31.708Z,77.72
2022-11-13T18:46:58.331Z,77.63
2022-11-13T18:49:24.955Z,78.80
2022-11-13T18:51:51.575Z,78.83
2022-11-13T18:54:18.211Z,78.73
2022-11-13T18:56:44.830Z,78.46
2022-11-13T18:59:11.462Z,78.51
2022-11-13T19:01:38.173Z,78.85
2022-11-13T19:04:23.740Z,79.29
2022-11-13T19:06:50.976Z,79.37
2022-11-13T19:09:17.709Z,79.73
2022-11-13T19:11:44.379Z,79.72
2022-11-13T19:14:14.013Z,80.24
2022-11-13T19:16:40.735Z,80.78
2022-11-13T19:19:13.739Z,80.82
2022-11-13T19:21:40.589Z,80.43
2022-11-13T19:24:07.515Z,81.23
2022-11-13T19:26:34.173Z,80.71
2022-11-13T19:29:00.830Z,79.98
2022-11-13T19:31:27.531Z,80.34
2022-11-13T19:34:01.674Z,84.50
2022-11-13T19:36:29.226Z,83.87
2022-11-13T19:38:55.952Z,82.87
2022-11-13T19:41:22.641Z,81.98
2022-11-13T19:43:49.259Z,82.09
2022-11-13T19:46:16.540Z,82.26
2022-11-13T19:48:44.244Z,81.48
2022-11-13T19:51:14.217Z,82.35
2022-11-13T19:53:40.919Z,81.95
2022-11-13T19:56:07.762Z,82.42
2022-11-13T19:58:34.397Z,82.07
2022-11-13T20:01:08.031Z,81.29
2022-11-13T20:03:34.756Z,81.47
2022-11-13T20:06:01.388Z,81.44
2022-11-13T20:08:28.383Z,80.98
2022-11-13T20:11:04.039Z,81.82
2022-11-13T20:13:32.206Z,82.87
2022-11-13T20:15:58.894Z,81.53
2022-11-13T20:18:25.611Z,81.50
2022-11-13T20:20:54.975Z,80.99
2022-11-13T20:23:21.849Z,82.66
2022-11-13T20:25:55.765Z,85.14
2022-11-13T20:28:22.696Z,84.67
2022-11-13T20:30:49.599Z,84.25
2022-11-13T20:33:21.244Z,83.14
2022-11-13T20:35:55.333Z,82.46
2022-11-13T20:38:21.962Z,81.89
2022-11-13T20:40:48.622Z,80.89
2022-11-13T20:43:15.245Z,81.67
2022-11-13T20:45:41.866Z,81.14
2022-11-13T20:48:08.503Z,81.36
2022-11-13T20:50:36.157Z,80.31
2022-11-13T20:53:03.073Z,81.30
2022-11-13T20:55:30.159Z,80.07
2022-11-13T20:57:56.823Z,80.20
2022-11-13T21:00:23.603Z,79.89
2022-11-13T21:02:51.019Z,81.27
2022-11-13T21:05:17.644Z,81.57
2022-11-13T21:07:44.265Z,81.45
2022-11-13T21:10:10.886Z,81.84
2022-11-13T21:12:37.515Z,82.77
2022-11-13T21:15:04.414Z,82.78
2022-11-13T21:17:31.042Z,82.86
2022-11-13T21:19:57.956Z,82.70
2022-11-13T21:22:24.641Z,83.39
2022-11-13T21:24:51.270Z,84.51
2022-11-13T21:27:17.888Z,83.80
2022-11-13T21:29:44.524Z,82.81
2022-11-13T21:32:11.135Z,82.39
2022-11-13T21:34:37.762Z,82.10
2022-11-13T21:37:04.390Z,83.45
2022-11-13T21:39:31.033Z,82.69
2022-11-13T21:41:57.660Z,81.33
2022-11-13T21:44:24.275Z,82.13
2022-11-13T21:46:50.890Z,82.80
2022-11-13T21:49:17.501Z,82.22
2022-11-13T21:51:44.139Z,81.83
2022-11-13T21:54:10.757Z,81.64
2022-11-13T21:56:37.819Z,82.46
2022-11-13T21:59:04.778Z,81.62
2022-11-13T22:01:37.820Z,81.42
2022-11-13T22:04:05.556Z,82.80
2022-11-13T22:06:33.280Z,82.48
2022-11-13T22:09:01.675Z,82.08
2022-11-13T22:11:30.025Z,82.74
2022-11-13T22:13:56.686Z,83.19
2022-11-13T22:16:23.542Z,83.63
2022-11-13T22:18:59.730Z,84.95
2022-11-13T22:21:27.026Z,84.51
2022-11-13T22:23:53.750Z,85.42
2022-11-13T22:26:20.928Z,83.18
2022-11-13T22:28:47.737Z,83.33
2022-11-13T22:31:18.765Z,80.65
2022-11-13T22:33:48.937Z,80.94
2022-11-13T22:36:21.682Z,79.67
2022-11-13T22:38:48.336Z,79.21
2022-11-13T22:41:22.834Z,79.67
2022-11-13T22:43:51.973Z,80.68
2022-11-13T22:46:19.962Z,80.97
2022-11-13T22:48:47.156Z,82.16
2022-11-13T22:51:15.540Z,80.44
2022-11-13T22:53:43.113Z,81.33
2022-11-13T22:56:14.205Z,81.38
2022-11-13T22:58:40.827Z,81.35
2022-11-13T23:01:13.982Z,81.80
2022-11-13T23:03:42.039Z,83.69
2022-11-13T23:06:09.090Z,83.58
2022-11-13T23:08:35.998Z,85.47
2022-11-13T23:11:02.619Z,85.41
2022-11-13T23:13:29.248Z,85.83
2022-11-13T23:15:55.867Z,86.16
2022-11-13T23:18:22.491Z,85.04
2022-11-13T23:20:49.109Z,84.68
2022-11-13T23:23:16.094Z,84.84
2022-11-13T23:25:42.719Z,86.78
2022-11-13T23:28:09.491Z,84.92
2022-11-13T23:30:36.106Z,83.94
2022-11-13T23:33:02.717Z,86.33
2022-11-13T23:35:29.347Z,86.37
2022-11-13T23:37:55.963Z,87.14
2022-11-13T23:40:22.593Z,87.67
2022-11-13T23:42:55.328Z,87.06
2022-11-13T23:45:22.274Z,87.16
2022-11-13T23:47:48.903Z,85.62
2022-11-13T23:50:15.538Z,87.36
2022-11-13T23:52:42.189Z,86.61
2022-11-13T23:55:08.948Z,84.46
2022-11-13T23:57:35.663Z,84.42
